Time;durP1;ratioP1;P1;durP2;ratioP2;P2;SDS_P1;SDS_P2;PMS_P1;PMS_P2;Temp;Humidity;BMP_temperature;BMP_pressure;BME280_temperature;BME280_humidity;BME280_pressure;Samples;Min_cycle;Max_cycle;Signal;HPM_P1;HPM_P2
2021/01/09 00:02:27;;;;;;;16.52;11.65;;;2.30;99.90;;;;;;5095891;28;20202;-79
2021/01/09 00:04:54;;;;;;;17.38;11.93;;;2.40;99.90;;;;;;5095901;28;20246;-82
2021/01/09 00:07:20;;;;;;;17.92;11.77;;;2.30;99.90;;;;;;5093153;28;20213;-79
2021/01/09 00:09:46;;;;;;;16.55;11.13;;;2.20;99.90;;;;;;5095575;28;20242;-79
2021/01/09 00:12:14;;;;;;;17.13;10.85;;;2.20;99.90;;;;;;5095861;28;21213;-78
2021/01/09 00:14:40;;;;;;;16.27;10.38;;;2.10;99.90;;;;;;5094663;28;20204;-79
2021/01/09 00:17:07;;;;;;;17.17;11.52;;;2.10;99.90;;;;;;5095627;28;20656;-79
2021/01/09 00:19:35;;;;;;;16.60;9.63;;;2.20;99.90;;;;;;5095937;28;20201;-79
2021/01/09 00:22:02;;;;;;;16.45;9.48;;;2.20;99.90;;;;;;5095570;28;20295;-84
2021/01/09 00:24:29;;;;;;;16.90;10.50;;;2.10;99.90;;;;;;5096058;28;20208;-78
2021/01/09 00:26:55;;;;;;;18.52;11.07;;;2.10;99.90;;;;;;5095625;28;20232;-79
2021/01/09 00:29:21;;;;;;;16.55;10.80;;;2.10;99.90;;;;;;5094218;28;20197;-78
2021/01/09 00:31:47;;;;;;;17.63;11.73;;;2.10;99.90;;;;;;5095401;28;20315;-78
2021/01/09 00:34:14;;;;;;;18.02;11.05;;;2.20;99.90;;;;;;5094204;28;20235;-78
2021/01/09 00:36:47;;;;;;;18.30;12.63;;;2.20;99.90;;;;;;5094951;28;20205;-78
2021/01/09 00:39:16;;;;;;;15.13;10.40;;;2.20;99.90;;;;;;5095468;28;20648;-81
2021/01/09 00:41:42;;;;;;;16.02;10.63;;;2.20;99.90;;;;;;5095492;28;20218;-82
2021/01/09 00:44:09;;;;;;;16.25;11.20;;;2.10;99.90;;;;;;5094234;28;20205;-80
2021/01/09 00:46:36;;;;;;;18.27;11.88;;;2.10;99.90;;;;;;5095206;28;20231;-79
2021/01/09 00:49:02;;;;;;;18.00;10.80;;;2.10;99.90;;;;;;5095367;28;20197;-79
2021/01/09 00:51:29;;;;;;;16.60;10.75;;;2.10;99.90;;;;;;5095024;28;20613;-80
2021/01/09 00:53:56;;;;;;;15.55;9.85;;;2.10;99.90;;;;;;5095021;28;20200;-79
2021/01/09 00:56:23;;;;;;;20.15;11.73;;;2.10;99.90;;;;;;5095114;28;20648;-78
2021/01/09 00:58:49;;;;;;;17.08;10.85;;;2.10;99.90;;;;;;5093996;28;20232;-82
2021/01/09 01:01:16;;;;;;;18.55;12.32;;;2.10;99.90;;;;;;5095099;28;20204;-78
2021/01/09 01:03:43;;;;;;;22.50;12.02;;;2.10;99.90;;;;;;5094544;28;20724;-78
2021/01/09 01:06:10;;;;;;;18.30;11.05;;;2.10;99.90;;;;;;5094769;28;20207;-79
2021/01/09 01:08:36;;;;;;;16.00;11.32;;;2.20;99.90;;;;;;5094784;28;20286;-78
2021/01/09 01:11:06;;;;;;;15.98;11.27;;;2.20;99.90;;;;;;5094750;28;20207;-80
2021/01/09 01:13:32;;;;;;;16.25;11.85;;;2.10;99.90;;;;;;5094460;28;20597;-78
2021/01/09 01:15:59;;;;;;;21.73;12.75;;;2.10;99.90;;;;;;5092111;28;20205;-82
2021/01/09 01:18:25;;;;;;;19.95;12.20;;;2.20;99.90;;;;;;5094752;28;20204;-79
2021/01/09 01:20:52;;;;;;;17.15;11.30;;;2.20;99.90;;;;;;5093391;28;20574;-81
2021/01/09 01:23:18;;;;;;;23.42;11.82;;;2.10;99.90;;;;;;5094656;28;20200;-79
2021/01/09 01:25:45;;;;;;;20.63;11.90;;;2.10;99.90;;;;;;5094860;28;20578;-78
2021/01/09 01:28:12;;;;;;;20.92;12.43;;;2.20;99.90;;;;;;5094049;28;20243;-79
2021/01/09 01:30:40;;;;;;;20.58;11.02;;;2.30;99.90;;;;;;5093301;28;20197;-79
2021/01/09 01:33:06;;;;;;;15.90;9.68;;;2.40;99.90;;;;;;5092913;28;20247;-82
2021/01/09 01:35:32;;;;;;;20.50;11.48;;;2.30;99.90;;;;;;5094425;28;20295;-83
2021/01/09 01:37:59;;;;;;;17.65;10.38;;;2.40;99.90;;;;;;5094260;28;20208;-80
2021/01/09 01:40:25;;;;;;;13.35;10.48;;;2.20;99.90;;;;;;5094255;28;20201;-78
2021/01/09 01:42:52;;;;;;;16.42;11.02;;;2.20;99.90;;;;;;5094147;28;20201;-78
2021/01/09 01:45:21;;;;;;;18.58;12.00;;;2.20;99.90;;;;;;5092813;28;20201;-79
2021/01/09 01:47:48;;;;;;;18.02;10.63;;;2.20;99.90;;;;;;5094209;28;20660;-78
2021/01/09 01:50:15;;;;;;;19.13;11.30;;;2.20;99.90;;;;;;5094098;28;20295;-79
2021/01/09 01:52:42;;;;;;;16.63;11.48;;;2.20;99.90;;;;;;5094311;28;20239;-82
2021/01/09 01:55:11;;;;;;;21.48;12.80;;;2.20;99.90;;;;;;5093876;28;20768;-78
2021/01/09 01:57:37;;;;;;;15.40;10.73;;;2.30;99.90;;;;;;5093791;28;20236;-79
2021/01/09 02:00:06;;;;;;;20.70;12.00;;;2.30;99.90;;;;;;5092599;28;20211;-78
2021/01/09 02:02:34;;;;;;;21.38;11.45;;;2.30;99.90;;;;;;5093767;28;20205;-78
2021/01/09 02:05:03;;;;;;;23.55;13.07;;;2.30;99.90;;;;;;5095330;28;20204;-78
2021/01/09 02:07:37;;;;;;;22.55;13.60;;;2.20;99.90;;;;;;5095445;28;20302;-79
2021/01/09 02:10:05;;;;;;;16.00;11.07;;;2.20;99.90;;;;;;5094595;28;20270;-82
2021/01/09 02:12:40;;;;;;;21.13;13.35;;;2.20;99.90;;;;;;5094137;28;20332;-79
2021/01/09 02:15:07;;;;;;;17.30;11.82;;;2.20;99.90;;;;;;5092610;28;20206;-79
2021/01/09 02:17:36;;;;;;;15.98;11.70;;;2.20;99.90;;;;;;5093359;28;20291;-78
2021/01/09 02:20:04;;;;;;;23.98;13.27;;;2.20;99.90;;;;;;5093537;28;20215;-78
2021/01/09 02:22:33;;;;;;;21.02;14.18;;;2.40;99.90;;;;;;5093314;28;20295;-79
2021/01/09 02:25:03;;;;;;;21.17;13.40;;;2.30;99.90;;;;;;5093722;28;20544;-81
2021/01/09 02:27:29;;;;;;;22.23;13.50;;;2.20;99.90;;;;;;5093690;28;20319;-80
2021/01/09 02:30:00;;;;;;;22.20;13.98;;;2.30;99.90;;;;;;5092137;28;20328;-83
2021/01/09 02:32:30;;;;;;;19.75;12.15;;;2.30;99.90;;;;;;5092759;28;20710;-80
2021/01/09 02:34:59;;;;;;;23.92;15.07;;;2.40;99.90;;;;;;5093094;28;20213;-79
2021/01/09 02:37:26;;;;;;;23.52;14.80;;;2.40;99.90;;;;;;5093192;28;20611;-78
2021/01/09 02:39:54;;;;;;;17.75;11.82;;;2.40;99.90;;;;;;5093369;28;20240;-78
2021/01/09 02:42:22;;;;;;;22.67;12.50;;;2.40;99.90;;;;;;5093266;28;20208;-79
2021/01/09 02:44:49;;;;;;;17.17;12.38;;;2.40;99.90;;;;;;5092263;28;20227;-79
2021/01/09 02:47:15;;;;;;;21.25;13.02;;;2.40;99.90;;;;;;5093215;28;20204;-82
2021/01/09 02:49:42;;;;;;;23.77;13.23;;;2.30;99.90;;;;;;5093652;28;20296;-80
2021/01/09 02:52:08;;;;;;;19.67;11.90;;;2.30;99.90;;;;;;5093026;28;20231;-80
2021/01/09 02:54:35;;;;;;;21.23;14.68;;;2.30;99.90;;;;;;5093320;28;20207;-80
2021/01/09 02:57:01;;;;;;;19.77;12.48;;;2.40;99.90;;;;;;5093438;28;20300;-79
2021/01/09 02:59:28;;;;;;;20.83;13.98;;;2.30;99.90;;;;;;5090562;28;20205;-78
2021/01/09 03:01:55;;;;;;;18.00;11.93;;;2.30;99.90;;;;;;5092475;28;20326;-78
2021/01/09 03:04:21;;;;;;;16.75;11.00;;;2.30;99.90;;;;;;5093314;28;20605;-79
2021/01/09 03:06:48;;;;;;;22.13;13.13;;;2.20;99.90;;;;;;5093033;28;20722;-80
2021/01/09 03:09:14;;;;;;;22.73;13.52;;;2.20;99.90;;;;;;5093203;28;20205;-79
2021/01/09 03:11:40;;;;;;;16.38;11.07;;;2.20;99.90;;;;;;5092723;28;20287;-79
2021/01/09 03:14:07;;;;;;;22.15;12.18;;;2.20;99.90;;;;;;5092066;28;20205;-79
2021/01/09 03:16:35;;;;;;;17.15;12.27;;;2.30;99.90;;;;;;5092731;28;20269;-78
2021/01/09 03:19:01;;;;;;;17.88;10.52;;;2.30;99.90;;;;;;5093060;28;20257;-79
2021/01/09 03:21:27;;;;;;;22.60;11.80;;;2.20;99.90;;;;;;5092774;28;20616;-79
2021/01/09 03:23:54;;;;;;;21.95;12.15;;;2.10;99.90;;;;;;5092808;28;20292;-79
2021/01/09 03:26:20;;;;;;;23.95;13.48;;;2.00;99.90;;;;;;5092554;28;20336;-79
2021/01/09 03:28:46;;;;;;;19.23;11.52;;;2.10;99.90;;;;;;5091370;28;20201;-79
2021/01/09 03:31:13;;;;;;;21.13;11.65;;;2.10;99.90;;;;;;5092520;28;20200;-79
2021/01/09 03:33:40;;;;;;;17.42;12.07;;;2.10;99.90;;;;;;5092851;28;20224;-79
2021/01/09 03:36:07;;;;;;;22.85;13.27;;;2.30;99.90;;;;;;5092322;28;20207;-78
2021/01/09 03:38:35;;;;;;;16.10;12.00;;;2.30;99.90;;;;;;5092596;28;20208;-78
2021/01/09 03:41:01;;;;;;;25.17;12.45;;;2.20;99.90;;;;;;5092665;28;20201;-79
2021/01/09 03:43:27;;;;;;;19.88;12.98;;;2.10;99.90;;;;;;5095298;28;20207;-78
2021/01/09 03:45:54;;;;;;;25.70;13.27;;;2.20;99.90;;;;;;5095151;28;20291;-79
2021/01/09 03:48:20;;;;;;;19.75;12.88;;;2.20;99.90;;;;;;5096289;28;20235;-79
2021/01/09 03:50:47;;;;;;;20.15;12.98;;;2.20;99.90;;;;;;5096072;28;20211;-78
2021/01/09 03:53:14;;;;;;;22.20;12.80;;;2.20;99.90;;;;;;5096273;28;20640;-78
2021/01/09 03:55:40;;;;;;;21.52;12.40;;;2.20;99.90;;;;;;5096216;28;20412;-78
2021/01/09 03:58:06;;;;;;;18.15;10.65;;;2.30;99.90;;;;;;5096150;28;20635;-79
2021/01/09 04:00:33;;;;;;;20.70;12.82;;;2.30;99.90;;;;;;5095087;28;20219;-79
2021/01/09 04:02:59;;;;;;;20.77;13.85;;;2.30;99.90;;;;;;5095162;28;20762;-78
2021/01/09 04:05:25;;;;;;;20.05;12.50;;;2.20;99.90;;;;;;5095669;28;20219;-78
2021/01/09 04:07:53;;;;;;;19.60;13.38;;;2.10;99.90;;;;;;5095878;28;20201;-79
2021/01/09 04:10:19;;;;;;;23.33;13.25;;;2.10;99.90;;;;;;5096086;28;20234;-80
2021/01/09 04:12:45;;;;;;;22.15;13.55;;;2.30;99.90;;;;;;5096047;28;20235;-79
2021/01/09 04:15:12;;;;;;;17.85;12.65;;;2.20;99.90;;;;;;5094761;28;20201;-81
2021/01/09 04:17:39;;;;;;;21.58;12.85;;;2.10;99.90;;;;;;5096162;28;20214;-83
2021/01/09 04:20:06;;;;;;;26.65;14.63;;;2.00;99.90;;;;;;5096004;28;20300;-79
2021/01/09 04:22:33;;;;;;;22.42;14.23;;;2.10;99.90;;;;;;5095432;28;20296;-78
2021/01/09 04:25:01;;;;;;;21.45;12.63;;;2.00;99.90;;;;;;5095808;28;20295;-79
2021/01/09 04:27:27;;;;;;;20.02;13.45;;;2.00;99.90;;;;;;5093861;28;20236;-79
2021/01/09 04:29:54;;;;;;;20.08;12.32;;;2.00;99.90;;;;;;5092912;28;20291;-79
2021/01/09 04:32:20;;;;;;;24.08;14.18;;;2.00;99.90;;;;;;5095367;28;20242;-80
2021/01/09 04:34:48;;;;;;;17.90;12.68;;;1.90;99.90;;;;;;5095563;28;20223;-81
2021/01/09 04:37:15;;;;;;;19.95;13.52;;;1.90;99.90;;;;;;5095036;28;20208;-79
2021/01/09 04:39:41;;;;;;;23.13;13.27;;;1.90;99.90;;;;;;5095382;28;20208;-78
2021/01/09 04:42:09;;;;;;;26.20;14.43;;;1.90;99.90;;;;;;5094974;28;20261;-79
2021/01/09 04:44:37;;;;;;;20.67;14.07;;;1.90;99.90;;;;;;5093992;28;20201;-78
2021/01/09 04:47:04;;;;;;;17.13;12.35;;;2.00;99.90;;;;;;5095269;28;20205;-78
2021/01/09 04:49:30;;;;;;;21.30;13.77;;;1.90;99.90;;;;;;5095247;28;20299;-78
2021/01/09 04:51:57;;;;;;;20.83;12.80;;;2.00;99.90;;;;;;5094746;28;20228;-78
2021/01/09 04:54:25;;;;;;;20.85;14.85;;;2.10;99.90;;;;;;5094513;28;20676;-80
2021/01/09 04:56:53;;;;;;;28.42;16.63;;;2.00;99.90;;;;;;5094955;28;20288;-78
2021/01/09 04:59:22;;;;;;;34.55;21.27;;;2.00;99.90;;;;;;5094041;28;20201;-78
2021/01/09 05:01:50;;;;;;;24.25;14.48;;;2.00;99.90;;;;;;5095127;28;20545;-78
2021/01/09 05:04:18;;;;;;;26.23;16.08;;;2.00;99.90;;;;;;5095097;28;20588;-78
2021/01/09 05:06:46;;;;;;;28.50;14.57;;;2.00;99.90;;;;;;5093829;28;20205;-79
2021/01/09 05:09:14;;;;;;;20.20;12.27;;;2.00;99.90;;;;;;5095289;28;20201;-79
2021/01/09 05:11:42;;;;;;;21.00;13.50;;;2.00;99.90;;;;;;5076256;28;20211;-81
2021/01/09 05:14:09;;;;;;;21.80;14.40;;;2.00;99.90;;;;;;5093813;28;20300;-79
2021/01/09 05:16:39;;;;;;;26.58;15.85;;;1.90;99.90;;;;;;5094531;28;20724;-78
2021/01/09 05:19:07;;;;;;;24.30;16.35;;;2.00;99.90;;;;;;5094817;28;20205;-81
2021/01/09 05:21:35;;;;;;;30.58;17.52;;;2.00;99.90;;;;;;5094408;28;20249;-79
2021/01/09 05:24:03;;;;;;;27.13;15.43;;;2.00;99.90;;;;;;5094648;28;20205;-78
2021/01/09 05:26:31;;;;;;;26.17;14.45;;;1.90;99.90;;;;;;5094886;28;20233;-82
2021/01/09 05:28:59;;;;;;;24.77;15.13;;;1.90;99.90;;;;;;5093644;28;20251;-81
2021/01/09 05:31:27;;;;;;;23.77;13.15;;;1.90;99.90;;;;;;5095645;28;20197;-78
2021/01/09 05:33:55;;;;;;;20.13;13.40;;;1.90;99.90;;;;;;5094570;28;20235;-78
2021/01/09 05:36:22;;;;;;;22.05;13.90;;;1.90;99.90;;;;;;5094181;28;20205;-78
2021/01/09 05:38:50;;;;;;;28.13;13.70;;;2.10;99.90;;;;;;5094705;28;20273;-81
2021/01/09 05:41:18;;;;;;;27.75;14.40;;;2.20;99.90;;;;;;5100198;28;20228;-78
2021/01/09 05:43:48;;;;;;;23.20;13.98;;;2.10;99.90;;;;;;5111531;28;20260;-79
2021/01/09 05:46:16;;;;;;;20.65;13.10;;;2.00;99.90;;;;;;5103160;28;20292;-79
2021/01/09 05:48:42;;;;;;;24.88;14.70;;;1.90;99.90;;;;;;5095380;28;20205;-79
2021/01/09 05:51:13;;;;;;;21.98;12.38;;;1.90;99.90;;;;;;5094178;28;20214;-78
2021/01/09 05:53:41;;;;;;;29.40;14.43;;;1.90;99.90;;;;;;5094051;28;20233;-79
2021/01/09 05:56:10;;;;;;;27.23;13.40;;;1.90;99.90;;;;;;5058513;28;20205;-78
2021/01/09 05:58:37;;;;;;;25.67;15.88;;;1.80;99.90;;;;;;5094293;28;20211;-79
2021/01/09 06:01:06;;;;;;;30.05;15.80;;;1.80;99.90;;;;;;5092938;28;20296;-77
2021/01/09 06:03:39;;;;;;;22.20;14.38;;;1.80;99.90;;;;;;5093721;28;20208;-78
2021/01/09 06:06:22;;;;;;;25.13;15.45;;;1.90;99.90;;;;;;5093695;28;20244;-79
2021/01/09 06:08:54;;;;;;;20.73;13.93;;;2.00;99.90;;;;;;5093552;28;20288;-78
2021/01/09 06:11:30;;;;;;;25.13;15.30;;;2.00;99.90;;;;;;5093702;28;20258;-78
2021/01/09 06:14:01;;;;;;;26.13;15.02;;;2.00;99.90;;;;;;5092442;28;20247;-78
2021/01/09 06:16:30;;;;;;;27.55;16.10;;;2.10;99.90;;;;;;5093449;28;20269;-77
2021/01/09 06:18:57;;;;;;;24.40;13.73;;;2.20;99.90;;;;;;5093374;28;20212;-79
2021/01/09 06:21:26;;;;;;;23.98;14.27;;;2.20;99.90;;;;;;5093195;28;20197;-77
2021/01/09 06:23:56;;;;;;;21.67;13.75;;;2.10;99.90;;;;;;5093434;28;20578;-82
2021/01/09 06:26:24;;;;;;;24.45;14.50;;;2.10;99.90;;;;;;5093821;28;20602;-78
2021/01/09 06:28:56;;;;;;;22.23;15.50;;;2.00;99.90;;;;;;5092201;28;20308;-77
2021/01/09 06:31:24;;;;;;;24.58;14.48;;;2.10;99.90;;;;;;5093566;28;20291;-78
2021/01/09 06:33:53;;;;;;;26.20;14.07;;;2.10;99.90;;;;;;5093286;28;20262;-78
2021/01/09 06:36:20;;;;;;;23.88;14.25;;;2.00;99.90;;;;;;5092905;28;20209;-78
2021/01/09 06:38:49;;;;;;;22.75;13.88;;;2.00;99.90;;;;;;5092891;28;20226;-78
2021/01/09 06:41:17;;;;;;;20.80;13.73;;;2.00;99.90;;;;;;5093018;28;20201;-83
2021/01/09 06:43:48;;;;;;;25.25;15.02;;;1.90;99.90;;;;;;5092001;28;20307;-78
2021/01/09 06:46:29;;;;;;;24.92;14.60;;;2.00;99.90;;;;;;5093282;28;20291;-78
2021/01/09 06:48:55;;;;;;;25.77;13.43;;;2.00;99.90;;;;;;5092302;28;20568;-77
2021/01/09 06:51:43;;;;;;;28.55;15.90;;;2.00;99.90;;;;;;5092862;28;20197;-77
2021/01/09 06:54:22;;;;;;;33.70;16.80;;;2.00;99.90;;;;;;5092825;28;20255;-78
2021/01/09 06:56:49;;;;;;;34.20;16.65;;;2.00;99.90;;;;;;5092792;28;20200;-77
2021/01/09 06:59:32;;;;;;;27.60;14.70;;;2.10;99.90;;;;;;5091758;28;20207;-80
2021/01/09 07:02:16;;;;;;;25.27;14.80;;;2.10;99.90;;;;;;5092691;28;20283;-77
2021/01/09 07:05:19;;;;;;;30.90;16.48;;;2.10;99.90;;;;;;5092943;28;20204;-77
2021/01/09 07:07:56;;;;;;;24.80;16.77;;;2.20;99.90;;;;;;5060628;28;20207;-77
2021/01/09 07:10:26;;;;;;;30.73;15.20;;;2.20;99.90;;;;;;5092815;28;20200;-78
2021/01/09 07:12:57;;;;;;;27.65;16.85;;;2.20;99.90;;;;;;5092800;28;20225;-81
2021/01/09 07:15:25;;;;;;;30.25;16.15;;;2.10;99.90;;;;;;5091365;28;20708;-77
2021/01/09 07:17:58;;;;;;;27.75;14.70;;;2.00;99.90;;;;;;5095057;28;20299;-83
2021/01/09 07:20:29;;;;;;;28.05;17.73;;;2.00;99.90;;;;;;5097360;28;20311;-77
2021/01/09 07:23:00;;;;;;;28.08;16.38;;;2.00;99.90;;;;;;5099098;28;20296;-77
2021/01/09 07:25:34;;;;;;;29.20;16.30;;;1.90;99.90;;;;;;5105632;28;20240;-77
2021/01/09 07:28:03;;;;;;;28.92;16.98;;;2.00;99.90;;;;;;5097607;28;20264;-78
2021/01/09 07:30:30;;;;;;;29.88;17.27;;;1.90;99.90;;;;;;5096471;28;20283;-77
2021/01/09 07:32:58;;;;;;;33.65;17.40;;;2.00;99.90;;;;;;5096849;28;20239;-77
2021/01/09 07:35:31;;;;;;;28.55;17.80;;;1.90;99.90;;;;;;5096391;28;20205;-78
2021/01/09 07:38:02;;;;;;;29.20;17.80;;;2.00;99.90;;;;;;5096082;28;20209;-81
2021/01/09 07:40:33;;;;;;;39.42;18.05;;;2.00;99.90;;;;;;5096675;28;20292;-81
2021/01/09 07:43:00;;;;;;;38.80;19.33;;;1.90;99.90;;;;;;5096477;28;20236;-79
2021/01/09 07:45:32;;;;;;;24.90;16.88;;;1.90;99.90;;;;;;5095432;28;20207;-77
2021/01/09 07:47:59;;;;;;;31.70;17.15;;;1.90;99.90;;;;;;5096218;28;20664;-77
2021/01/09 07:50:25;;;;;;;24.60;15.95;;;1.90;99.90;;;;;;5096232;28;20201;-77
2021/01/09 07:53:04;;;;;;;28.65;17.05;;;1.90;99.90;;;;;;5095844;28;20228;-78
2021/01/09 07:55:44;;;;;;;38.05;17.98;;;1.90;99.90;;;;;;5096145;28;20205;-77
2021/01/09 07:58:11;;;;;;;33.75;17.50;;;1.90;99.90;;;;;;5096034;28;20731;-78
2021/01/09 08:00:42;;;;;;;30.75;19.45;;;2.00;99.90;;;;;;5094471;28;20205;-80
2021/01/09 08:03:09;;;;;;;29.55;17.05;;;2.00;99.90;;;;;;5095705;28;20230;-77
2021/01/09 08:05:37;;;;;;;30.00;16.45;;;2.00;99.90;;;;;;5096173;28;20287;-77
2021/01/09 08:08:05;;;;;;;29.95;17.67;;;2.10;99.90;;;;;;5095817;28;20572;-78
2021/01/09 08:10:32;;;;;;;26.85;15.65;;;2.20;99.90;;;;;;5096202;28;20204;-79
2021/01/09 08:13:02;;;;;;;29.90;16.35;;;2.30;99.90;;;;;;5096220;28;20272;-82
2021/01/09 08:15:30;;;;;;;21.35;14.57;;;2.30;99.90;;;;;;5094730;28;20205;-78
2021/01/09 08:18:00;;;;;;;32.28;17.25;;;2.40;99.90;;;;;;5095898;28;20213;-78
2021/01/09 08:20:26;;;;;;;34.30;17.73;;;2.30;99.90;;;;;;5095878;28;20227;-78
2021/01/09 08:22:54;;;;;;;34.83;16.80;;;2.40;99.90;;;;;;5095729;28;20203;-78
2021/01/09 08:25:22;;;;;;;25.77;16.05;;;2.60;99.90;;;;;;5095795;28;20575;-74
2021/01/09 08:31:19;;;;;;;27.40;16.77;;;2.70;99.90;;;;;;5096880;28;20246;-83
2021/01/09 08:33:47;;;;;;;29.23;16.00;;;2.60;99.90;;;;;;5095569;28;20319;-78
2021/01/09 08:36:15;;;;;;;28.80;17.85;;;2.60;99.90;;;;;;5095706;28;20238;-80
2021/01/09 08:38:43;;;;;;;27.92;15.18;;;2.70;99.90;;;;;;5095733;28;20301;-78
2021/01/09 08:41:09;;;;;;;33.35;18.90;;;2.70;99.90;;;;;;5095746;28;20246;-76
2021/01/09 08:43:36;;;;;;;27.65;17.30;;;2.70;99.90;;;;;;5095566;28;20308;-79
2021/01/09 08:46:03;;;;;;;32.60;19.58;;;2.70;99.90;;;;;;5094383;28;20208;-78
2021/01/09 08:48:35;;;;;;;30.70;18.77;;;2.70;99.90;;;;;;5095532;28;20449;-79
2021/01/09 08:51:03;;;;;;;36.45;18.63;;;2.60;99.90;;;;;;5095373;28;20635;-77
2021/01/09 08:53:36;;;;;;;31.75;17.83;;;2.40;99.90;;;;;;5095113;28;20315;-80
2021/01/09 08:56:04;;;;;;;27.60;16.92;;;2.50;99.90;;;;;;5095195;28;20284;-76
2021/01/09 08:58:32;;;;;;;37.38;18.25;;;2.50;99.90;;;;;;5095015;28;20622;-76
2021/01/09 09:01:02;;;;;;;36.15;20.17;;;2.30;99.90;;;;;;5093645;28;20220;-77
2021/01/09 09:03:31;;;;;;;34.10;18.92;;;2.20;99.90;;;;;;5095188;28;20212;-77
2021/01/09 09:06:02;;;;;;;37.85;20.02;;;2.10;99.90;;;;;;5096596;28;20284;-78
2021/01/09 09:08:29;;;;;;;39.38;22.33;;;2.10;99.90;;;;;;5095396;28;20211;-79
2021/01/09 09:10:57;;;;;;;36.92;19.42;;;2.00;99.90;;;;;;5095187;28;20236;-77
2021/01/09 09:13:24;;;;;;;34.38;16.55;;;2.00;99.90;;;;;;5094607;28;20750;-77
2021/01/09 09:15:52;;;;;;;46.45;21.27;;;1.90;99.90;;;;;;5093564;28;20201;-78
2021/01/09 09:18:19;;;;;;;37.78;18.73;;;1.90;99.90;;;;;;5094863;28;20201;-78
2021/01/09 09:20:48;;;;;;;37.40;21.85;;;1.90;99.90;;;;;;5094658;28;20274;-79
2021/01/09 09:23:16;;;;;;;40.80;21.98;;;1.90;99.90;;;;;;5094648;28;20781;-77
2021/01/09 09:25:42;;;;;;;41.67;21.15;;;2.00;99.90;;;;;;5094736;28;20305;-79
2021/01/09 09:28:09;;;;;;;37.20;19.35;;;2.10;99.90;;;;;;5094545;28;20240;-78
2021/01/09 09:30:39;;;;;;;37.90;19.52;;;2.10;99.90;;;;;;5094501;28;20264;-79
2021/01/09 09:33:12;;;;;;;38.70;21.02;;;2.10;99.90;;;;;;5094046;28;20264;-78
2021/01/09 09:35:39;;;;;;;39.95;19.95;;;2.20;99.90;;;;;;5094721;28;20655;-80
2021/01/09 09:38:10;;;;;;;33.53;16.92;;;2.30;99.90;;;;;;5094375;28;20703;-80
2021/01/09 09:40:37;;;;;;;36.60;19.05;;;2.30;99.90;;;;;;5094390;28;20299;-79
2021/01/09 09:43:15;;;;;;;32.38;18.23;;;2.20;99.90;;;;;;5094799;28;20201;-84
2021/01/09 09:45:55;;;;;;;43.05;20.60;;;2.20;99.90;;;;;;5093094;28;20722;-77
2021/01/09 09:48:31;;;;;;;36.63;19.42;;;2.30;99.90;;;;;;5095630;28;20277;-79
2021/01/09 09:51:05;;;;;;;31.73;18.17;;;2.30;99.90;;;;;;5095184;28;20200;-82
2021/01/09 09:53:35;;;;;;;33.95;19.73;;;2.40;99.90;;;;;;5094624;28;20319;-81
2021/01/09 09:56:11;;;;;;;38.85;20.02;;;2.60;99.90;;;;;;5095224;28;20265;-77
2021/01/09 09:58:38;;;;;;;40.53;20.90;;;2.80;99.90;;;;;;5094667;28;20287;-80
2021/01/09 10:01:18;;;;;;;28.95;16.92;;;2.70;99.90;;;;;;5095708;28;20258;-88
2021/01/09 10:03:44;;;;;;;27.35;15.57;;;2.90;99.90;;;;;;5096370;28;20205;-86
2021/01/09 10:06:11;;;;;;;39.42;18.50;;;3.00;99.90;;;;;;5097006;28;20208;-83
2021/01/09 10:08:38;;;;;;;32.83;17.00;;;3.00;99.90;;;;;;5094448;28;20436;-85
2021/01/09 10:11:06;;;;;;;30.48;17.88;;;3.20;99.90;;;;;;5095944;28;20284;-83
2021/01/09 10:13:35;;;;;;;32.45;18.63;;;3.40;99.90;;;;;;5094905;28;20662;-77
2021/01/09 10:16:03;;;;;;;25.70;16.20;;;3.50;99.90;;;;;;5093339;28;20620;-77
2021/01/09 10:18:30;;;;;;;26.13;14.88;;;3.50;99.90;;;;;;5071267;28;20289;-82
2021/01/09 10:20:57;;;;;;;23.63;14.75;;;3.60;99.90;;;;;;5074954;28;20248;-79
2021/01/09 10:23:24;;;;;;;27.55;14.48;;;3.80;99.90;;;;;;5073129;28;20296;-77
2021/01/09 10:25:52;;;;;;;22.33;13.70;;;3.60;99.90;;;;;;5073290;28;20244;-78
2021/01/09 10:28:18;;;;;;;20.90;12.60;;;3.40;99.90;;;;;;5073171;28;20251;-78
2021/01/09 10:30:48;;;;;;;22.38;13.02;;;3.30;99.90;;;;;;5071875;28;20235;-79
2021/01/09 10:33:15;;;;;;;23.67;11.90;;;3.30;99.90;;;;;;5073220;28;20229;-82
2021/01/09 10:35:46;;;;;;;20.48;11.90;;;3.50;99.90;;;;;;5072896;28;20229;-78
2021/01/09 10:38:12;;;;;;;10.93;8.20;;;3.40;99.90;;;;;;5072978;28;20198;-83
2021/01/09 10:40:38;;;;;;;13.15;11.25;;;3.60;99.90;;;;;;5072908;28;20233;-80
2021/01/09 10:43:08;;;;;;;19.55;10.13;;;3.60;99.90;;;;;;5079248;28;20288;-81
2021/01/09 10:45:34;;;;;;;14.48;9.10;;;3.60;99.90;;;;;;5082752;28;20224;-80
2021/01/09 10:48:01;;;;;;;14.85;8.73;;;3.70;99.90;;;;;;5082160;28;20340;-80
2021/01/09 10:50:27;;;;;;;13.52;7.97;;;3.70;99.90;;;;;;5079946;28;20715;-87
2021/01/09 10:52:53;;;;;;;15.45;8.73;;;4.00;99.90;;;;;;5080789;28;20228;-83
2021/01/09 10:55:20;;;;;;;12.65;7.60;;;4.30;99.90;;;;;;5082730;28;20331;-80
2021/01/09 10:57:46;;;;;;;13.77;8.65;;;4.30;99.90;;;;;;5091201;28;20284;-85
2021/01/09 11:00:17;;;;;;;13.45;8.50;;;3.90;99.90;;;;;;5082178;28;20292;-79
2021/01/09 11:02:43;;;;;;;13.35;8.25;;;3.90;99.90;;;;;;5072823;28;20206;-81
2021/01/09 11:05:10;;;;;;;12.63;7.65;;;4.00;99.90;;;;;;5075686;28;20284;-81
2021/01/09 11:07:39;;;;;;;12.82;7.10;;;4.60;99.90;;;;;;5074833;28;20204;-82
2021/01/09 11:10:07;;;;;;;8.73;6.60;;;4.80;99.90;;;;;;5075487;28;20197;-81
2021/01/09 11:12:34;;;;;;;10.02;6.72;;;4.90;99.90;;;;;;5074480;28;20339;-91
2021/01/09 11:15:01;;;;;;;13.10;7.20;;;4.60;99.90;;;;;;5072626;28;20370;-89
2021/01/09 11:17:30;;;;;;;10.98;6.43;;;4.40;99.90;;;;;;5085110;28;20672;-82
2021/01/09 11:19:56;;;;;;;9.95;6.22;;;4.50;99.90;;;;;;5076913;28;20662;-83
2021/01/09 11:22:23;;;;;;;9.57;6.10;;;4.40;99.90;;;;;;5077948;28;20280;-82
2021/01/09 11:24:49;;;;;;;10.07;6.07;;;4.30;99.90;;;;;;5091012;28;20208;-85
2021/01/09 11:27:17;;;;;;;10.25;6.40;;;4.20;99.90;;;;;;5083596;28;20482;-83
2021/01/09 11:29:44;;;;;;;7.90;6.00;;;4.00;99.90;;;;;;5081493;28;20193;-84
2021/01/09 11:32:10;;;;;;;7.07;5.30;;;3.70;99.90;;;;;;5081399;28;20280;-86
2021/01/09 11:34:37;;;;;;;6.70;5.25;;;3.60;99.90;;;;;;5079636;28;20308;-86
2021/01/09 11:37:07;;;;;;;10.18;5.75;;;3.90;99.90;;;;;;5082508;28;20292;-82
2021/01/09 11:39:33;;;;;;;7.30;5.25;;;3.80;99.90;;;;;;5081033;28;20228;-80
2021/01/09 11:41:59;;;;;;;11.80;6.82;;;3.70;99.90;;;;;;5082748;28;20673;-82
2021/01/09 11:44:27;;;;;;;6.78;5.65;;;3.80;99.90;;;;;;5080216;28;20285;-82
2021/01/09 11:46:54;;;;;;;9.18;7.85;;;3.80;99.90;;;;;;5082938;28;20255;-82
2021/01/09 11:49:21;;;;;;;6.10;4.70;;;3.80;99.90;;;;;;5081163;28;20200;-86
2021/01/09 11:51:48;;;;;;;9.80;6.43;;;3.90;99.90;;;;;;5080954;28;20277;-82
2021/01/09 11:54:14;;;;;;;23.80;20.65;;;3.90;99.90;;;;;;5081145;28;20678;-81
2021/01/09 11:56:43;;;;;;;8.00;5.25;;;4.00;99.90;;;;;;5081119;28;20285;-85
2021/01/09 11:59:09;;;;;;;10.57;8.07;;;3.90;99.90;;;;;;5075643;28;20208;-83
2021/01/09 12:01:36;;;;;;;9.55;6.80;;;3.80;99.90;;;;;;5072725;28;20297;-81
2021/01/09 12:04:06;;;;;;;9.65;6.50;;;3.50;99.90;;;;;;5074547;28;20285;-88
2021/01/09 12:06:33;;;;;;;8.05;5.55;;;3.50;99.90;;;;;;5075963;28;20248;-81
2021/01/09 12:09:00;;;;;;;11.07;7.00;;;3.60;99.90;;;;;;5075706;28;20289;-80
2021/01/09 12:11:27;;;;;;;8.65;5.65;;;3.60;99.90;;;;;;5076599;28;20206;-80
2021/01/09 12:13:53;;;;;;;7.22;5.28;;;3.60;99.90;;;;;;5074697;28;20316;-81
2021/01/09 12:16:32;;;;;;;7.72;6.15;;;3.60;99.90;;;;;;5084468;28;20284;-81
2021/01/09 12:19:00;;;;;;;12.93;11.63;;;3.60;99.90;;;;;;5095761;28;20265;-79
2021/01/09 12:21:28;;;;;;;8.85;6.28;;;3.80;99.90;;;;;;5095970;28;20287;-79
2021/01/09 12:23:55;;;;;;;11.13;6.53;;;3.80;99.90;;;;;;5095832;28;20201;-80
2021/01/09 12:26:23;;;;;;;12.73;9.18;;;3.60;99.90;;;;;;5095096;28;20639;-81
2021/01/09 12:28:49;;;;;;;10.00;6.38;;;3.60;99.90;;;;;;5095369;28;20212;-80
2021/01/09 12:31:16;;;;;;;8.70;6.28;;;3.70;99.90;;;;;;5096255;28;20304;-80
2021/01/09 12:33:42;;;;;;;10.05;7.50;;;3.60;99.90;;;;;;5097002;28;20264;-80
2021/01/09 12:36:09;;;;;;;9.35;6.75;;;3.70;99.90;;;;;;5097651;28;20621;-81
2021/01/09 12:38:38;;;;;;;12.27;7.78;;;3.90;99.90;;;;;;5104515;28;20236;-80
2021/01/09 12:41:05;;;;;;;7.55;6.28;;;3.80;99.90;;;;;;5109564;28;20232;-80
2021/01/09 12:43:41;;;;;;;8.45;6.70;;;3.70;99.90;;;;;;5114296;28;20197;-82
2021/01/09 12:46:07;;;;;;;11.32;7.22;;;3.80;99.90;;;;;;5106218;28;20200;-82
2021/01/09 12:48:34;;;;;;;7.80;6.20;;;3.70;99.90;;;;;;5096860;28;20286;-81
2021/01/09 12:51:02;;;;;;;9.13;6.70;;;3.80;99.90;;;;;;5096233;28;20615;-80